Аэропорт: Гостомель. Киев

ICAO: UKKM

METAR:
2018/05/20 23:00
UKKM 202300Z AUTO 33003MPS 9999 // NCD 07/05 Q1021
METAR:
2018/05/20 18:06
TAF UKKM 201701Z 2018/2118 34003MPS 9999 SCT030 
      TEMPO 2018/2106 2100 BR SCT007 
      BECMG 2106/2108 32005MPS